createdAt,value
2022-12-27T00:00:47.137Z,2.70
2022-12-27T00:03:15.865Z,2.70
2022-12-27T00:05:45.789Z,2.60
2022-12-27T00:08:55.548Z,2.50
2022-12-27T00:11:59.841Z,2.50
2022-12-27T00:17:13.293Z,2.50
2022-12-27T00:19:42.601Z,2.50
2022-12-27T00:22:11.489Z,2.60
2022-12-27T00:24:40.726Z,2.60
2022-12-27T00:27:09.581Z,2.50
2022-12-27T00:29:43.877Z,2.50
2022-12-27T00:32:37.137Z,2.50
2022-12-27T00:35:09.947Z,2.50
2022-12-27T01:34:20.750Z,2.10
2022-12-27T01:36:51.896Z,2.20
2022-12-27T01:39:20.530Z,2.20
2022-12-27T01:42:14.685Z,2.20
2022-12-27T01:45:15.393Z,2.20
2022-12-27T01:48:12.981Z,2.20
2022-12-27T01:51:00.572Z,2.10
2022-12-27T02:32:34.652Z,2.20
2022-12-27T02:43:43.174Z,2.20
2022-12-27T02:50:34.872Z,2.20
2022-12-27T05:11:38.306Z,1.20
2022-12-27T06:11:19.975Z,0.60
2022-12-27T07:05:27.419Z,0.90
2022-12-27T07:08:19.406Z,0.90
2022-12-27T07:11:01.014Z,0.90
2022-12-27T07:17:01.175Z,0.80
2022-12-27T07:19:35.689Z,0.80
2022-12-27T07:22:24.395Z,0.70
2022-12-27T07:25:08.398Z,0.60
2022-12-27T07:27:57.701Z,0.70
2022-12-27T07:30:27.363Z,0.70
2022-12-27T07:33:01.016Z,0.70
2022-12-27T07:35:35.004Z,0.70
2022-12-27T07:38:34.687Z,0.80
2022-12-27T07:41:27.942Z,0.80
2022-12-27T07:44:28.429Z,0.90
2022-12-27T07:47:09.443Z,1.00
2022-12-27T07:49:43.663Z,1.00
2022-12-27T07:52:23.464Z,1.10
2022-12-27T07:55:03.701Z,1.10
2022-12-27T07:57:41.346Z,1.00
2022-12-27T08:00:27.652Z,1.00
2022-12-27T08:03:06.099Z,1.00
2022-12-27T08:05:48.547Z,1.10
2022-12-27T09:03:01.094Z,2.30
2022-12-27T09:05:51.696Z,2.30
2022-12-27T09:11:25.188Z,2.40
2022-12-27T09:13:53.828Z,2.40
2022-12-27T09:16:51.989Z,2.40
2022-12-27T09:19:22.211Z,2.50
2022-12-27T09:21:50.653Z,2.50
2022-12-27T09:24:32.292Z,2.60
2022-12-27T09:27:11.557Z,2.70
2022-12-27T09:29:44.609Z,2.80
2022-12-27T09:32:16.540Z,2.90
2022-12-27T09:34:46.496Z,2.90
2022-12-27T09:37:14.983Z,2.90
2022-12-27T09:39:47.761Z,3.00
2022-12-27T09:42:50.777Z,3.10
2022-12-27T09:45:27.391Z,3.20
2022-12-27T09:47:59.879Z,3.20
2022-12-27T09:50:51.313Z,3.20
2022-12-27T09:53:53.720Z,3.10
2022-12-27T09:57:20.470Z,3.20
2022-12-27T10:00:16.967Z,3.10
2022-12-27T10:03:08.388Z,3.00
2022-12-27T10:08:36.031Z,2.80
2022-12-27T10:25:36.456Z,3.40
2022-12-27T10:28:16.886Z,3.50
2022-12-27T10:30:46.112Z,3.50
2022-12-27T11:56:44.802Z,3.50
2022-12-27T11:59:33.230Z,3.70
2022-12-27T12:02:41.339Z,3.80
2022-12-27T12:05:49.665Z,3.80
2022-12-27T12:09:00.934Z,3.80
2022-12-27T12:11:48.618Z,3.80
2022-12-27T12:14:57.209Z,3.90
2022-12-27T12:17:42.912Z,3.90
2022-12-27T12:20:50.483Z,3.80
2022-12-27T12:23:37.832Z,3.70
2022-12-27T12:26:21.624Z,3.70
2022-12-27T12:29:37.158Z,3.80
2022-12-27T12:32:30.384Z,3.80
2022-12-27T12:35:41.427Z,3.80
2022-12-27T12:38:24.198Z,3.90
2022-12-27T12:41:34.517Z,3.80
2022-12-27T12:44:45.232Z,3.80
2022-12-27T12:47:56.676Z,3.80
2022-12-27T12:50:56.534Z,3.80
2022-12-27T12:53:45.083Z,4.00
2022-12-27T12:56:30.364Z,4.10
2022-12-27T12:59:26.190Z,4.10
2022-12-27T13:02:33.019Z,4.10
2022-12-27T13:05:50.368Z,4.20
2022-12-27T13:08:44.637Z,4.20
2022-12-27T13:12:01.030Z,4.20
2022-12-27T13:15:20.951Z,4.20
2022-12-27T13:18:06.135Z,4.20
2022-12-27T13:21:17.265Z,4.10
2022-12-27T13:24:15.684Z,4.10
2022-12-27T13:26:57.138Z,4.00
2022-12-27T13:29:51.466Z,4.00
2022-12-27T13:32:29.173Z,4.00
2022-12-27T13:35:21.723Z,4.00
2022-12-27T13:38:02.768Z,3.90
2022-12-27T13:40:52.842Z,3.90
2022-12-27T13:43:46.909Z,3.90
2022-12-27T13:46:44.491Z,3.90
2022-12-27T13:49:49.012Z,3.90
2022-12-27T13:52:47.654Z,3.80
2022-12-27T13:55:44.351Z,3.80
2022-12-27T13:58:59.805Z,3.80
2022-12-27T14:01:48.042Z,3.80
2022-12-27T14:04:47.280Z,3.80
2022-12-27T14:07:39.195Z,3.80
2022-12-27T14:10:14.840Z,3.80
2022-12-27T14:13:07.763Z,3.80
2022-12-27T14:20:00.039Z,3.80
2022-12-27T14:22:56.352Z,3.80
2022-12-27T14:26:03.779Z,3.70
2022-12-27T14:29:10.613Z,3.60
2022-12-27T14:32:39.536Z,3.50
2022-12-27T14:35:37.491Z,3.50
2022-12-27T14:38:42.986Z,3.50
2022-12-27T14:41:50.138Z,3.50
2022-12-27T14:44:54.304Z,3.50
2022-12-27T14:54:50.819Z,3.50
2022-12-27T14:57:31.711Z,3.50
2022-12-27T15:00:13.316Z,3.50
2022-12-27T15:03:05.864Z,3.50
2022-12-27T15:05:49.236Z,3.50
2022-12-27T15:08:41.074Z,3.40
2022-12-27T15:12:07.204Z,3.40
2022-12-27T15:14:56.632Z,3.30
2022-12-27T15:17:53.998Z,3.30
2022-12-27T15:20:42.427Z,3.30
2022-12-27T15:23:26.157Z,3.20
2022-12-27T15:26:11.938Z,3.20
2022-12-27T15:28:55.966Z,3.20
2022-12-27T15:31:32.654Z,3.10
2022-12-27T15:34:17.887Z,3.10
2022-12-27T15:36:48.429Z,3.00
2022-12-27T15:39:51.474Z,3.00
2022-12-27T15:42:52.719Z,3.00
2022-12-27T15:45:43.733Z,3.00
2022-12-27T15:48:41.459Z,3.00
2022-12-27T15:51:17.295Z,3.10
2022-12-27T15:54:16.511Z,3.00
2022-12-27T15:57:00.861Z,3.00
2022-12-27T15:59:41.419Z,2.90
2022-12-27T16:02:35.635Z,2.90
2022-12-27T16:05:13.031Z,2.90
2022-12-27T16:07:47.202Z,2.90
2022-12-27T16:10:34.318Z,2.70
2022-12-27T16:13:34.495Z,2.70
2022-12-27T16:16:33.876Z,2.70
2022-12-27T16:19:21.940Z,2.50
2022-12-27T16:21:51.016Z,2.40
2022-12-27T16:24:23.665Z,2.30
2022-12-27T16:27:00.484Z,2.40
2022-12-27T16:29:33.480Z,2.30
2022-12-27T16:32:25.340Z,2.30
2022-12-27T16:35:10.848Z,2.30
2022-12-27T16:37:45.386Z,2.20
2022-12-27T16:40:39.822Z,2.30
2022-12-27T16:43:48.733Z,2.20
2022-12-27T16:46:42.809Z,2.30
2022-12-27T16:49:55.725Z,2.30
2022-12-27T16:52:55.053Z,2.30
2022-12-27T16:55:59.837Z,2.20
2022-12-27T16:58:36.431Z,2.10
2022-12-27T17:01:07.758Z,1.90
2022-12-27T17:03:47.749Z,1.80
2022-12-27T17:06:57.848Z,1.60
2022-12-27T17:09:44.974Z,1.40
2022-12-27T17:12:24.037Z,1.20
2022-12-27T17:15:04.936Z,1.10
2022-12-27T17:17:33.853Z,1.10
2022-12-27T17:20:06.445Z,1.00
2022-12-27T17:22:41.411Z,1.00
2022-12-27T17:25:16.695Z,0.90
2022-12-27T17:28:06.146Z,0.90
2022-12-27T17:30:47.292Z,0.80
2022-12-27T18:00:49.755Z,0.70
2022-12-27T23:28:46.824Z,0.10
